< < Back
Terminal Aerodrome Forecast


Current Version              Previous Versions:   1  2  3  4  5  6  7  8  9  

Terminal Aerodrome Forecast

967
FTUS42 KJAX 241737
TAFJAX
TAF
KJAX 241737Z 2418/2518 06014G22KT P6SM SCT035
     FM250000 03006KT P6SM SCT020
     FM250900 03006KT P6SM VCSH SCT015 BKN025
     FM251500 05011KT P6SM VCSH SCT025 BKN035=



Latest METAR

424
SAUS80 KWBC 250100
MTRJAX
METAR KJAX 250056Z 07007KT 10SM FEW030 FEW120 SCT250 27/22 A3014 RMK AO2
SLP208 T02670222


USA.gov is the U.S. government's official web portal to all federal, state and local government web resources and services.